createdAt,value
2022-12-15T00:00:48.693Z,-6.40
2022-12-15T00:03:34.052Z,-6.41
2022-12-15T00:06:19.399Z,-6.39
2022-12-15T00:09:04.280Z,-6.38
2022-12-15T00:11:49.597Z,-6.36
2022-12-15T00:14:34.343Z,-6.32
2022-12-15T00:17:19.197Z,-6.30
2022-12-15T00:20:04.333Z,-6.31
2022-12-15T00:22:49.161Z,-6.30
2022-12-15T00:25:34.640Z,-6.25
2022-12-15T00:28:19.720Z,-6.27
2022-12-15T00:31:05.236Z,-6.28
2022-12-15T00:33:50.214Z,-6.32
2022-12-15T00:36:34.940Z,-6.34
2022-12-15T00:39:03.943Z,-6.33
2022-12-15T00:41:30.699Z,-6.33
2022-12-15T00:43:57.274Z,-6.31
2022-12-15T00:46:42.213Z,-6.31
2022-12-15T00:49:28.864Z,-6.31
2022-12-15T00:52:14.068Z,-6.30
2022-12-15T00:54:59.391Z,-6.34
2022-12-15T00:57:44.590Z,-6.32
2022-12-15T01:00:30.167Z,-6.33
2022-12-15T01:03:15.504Z,-6.35
2022-12-15T01:06:00.584Z,-6.36
2022-12-15T01:08:46.895Z,-6.36
2022-12-15T01:11:31.742Z,-6.37
2022-12-15T01:14:17.014Z,-6.37
2022-12-15T01:17:01.960Z,-6.39
2022-12-15T01:19:46.948Z,-6.41
2022-12-15T01:22:16.053Z,-6.43
2022-12-15T01:24:42.591Z,-6.47
2022-12-15T01:27:09.019Z,-6.52
2022-12-15T01:29:35.579Z,-6.56
2022-12-15T01:32:02.149Z,-6.62
2022-12-15T01:34:28.594Z,-6.64
2022-12-15T01:36:55.006Z,-6.67
2022-12-15T01:39:21.426Z,-6.72
2022-12-15T01:41:47.933Z,-6.77
2022-12-15T01:44:23.748Z,-6.78
2022-12-15T01:46:55.041Z,-6.81
2022-12-15T01:49:26.444Z,-6.83
2022-12-15T01:51:58.352Z,-6.81
2022-12-15T01:54:30.552Z,-6.79
2022-12-15T01:57:03.007Z,-6.77
2022-12-15T01:59:43.785Z,-6.76
2022-12-15T02:02:12.544Z,-6.74
2022-12-15T02:04:39.358Z,-6.78
2022-12-15T02:07:05.823Z,-6.79
2022-12-15T02:09:32.575Z,-6.80
2022-12-15T02:12:08.032Z,-6.79
2022-12-15T02:14:53.006Z,-6.75
2022-12-15T02:17:28.099Z,-6.76
2022-12-15T02:20:20.477Z,-6.73
2022-12-15T02:23:05.447Z,-6.72
2022-12-15T02:25:44.307Z,-6.70
2022-12-15T02:28:16.979Z,-6.69
2022-12-15T02:31:09.796Z,-6.71
2022-12-15T02:33:43.781Z,-6.72
2022-12-15T02:36:17.264Z,-6.71
2022-12-15T02:38:45.140Z,-6.72
2022-12-15T02:41:35.498Z,-6.73
2022-12-15T02:44:19.792Z,-6.71
2022-12-15T02:46:54.718Z,-6.71
2022-12-15T02:49:33.342Z,-6.71
2022-12-15T02:52:36.273Z,-6.71
2022-12-15T02:55:30.736Z,-6.70
2022-12-15T02:58:18.920Z,-6.71
2022-12-15T03:00:54.542Z,-6.69
2022-12-15T03:03:22.715Z,-6.70
2022-12-15T03:05:57.329Z,-6.69
2022-12-15T03:08:24.006Z,-6.68
2022-12-15T03:10:53.078Z,-6.67
2022-12-15T03:13:19.475Z,-6.70
2022-12-15T03:15:46.174Z,-6.73
2022-12-15T03:18:12.971Z,-6.79
2022-12-15T03:20:39.309Z,-6.81
2022-12-15T03:23:05.657Z,-6.79
2022-12-15T03:25:32.449Z,-6.77
2022-12-15T03:27:59.024Z,-6.76
2022-12-15T03:30:25.476Z,-6.76
2022-12-15T03:32:51.918Z,-6.74
2022-12-15T03:35:18.682Z,-6.71
2022-12-15T03:37:45.113Z,-6.67
2022-12-15T03:40:13.831Z,-6.62
2022-12-15T03:42:49.450Z,-6.60
2022-12-15T03:45:24.257Z,-6.67
2022-12-15T03:47:51.455Z,-6.68
2022-12-15T03:50:26.942Z,-6.59
2022-12-15T03:52:56.148Z,-6.55
2022-12-15T03:55:23.181Z,-6.55
2022-12-15T03:57:49.883Z,-6.64
2022-12-15T04:00:18.673Z,-6.75
2022-12-15T04:02:46.727Z,-6.77
2022-12-15T04:05:26.091Z,-6.80
2022-12-15T04:07:53.858Z,-6.83
2022-12-15T04:10:20.609Z,-6.90
2022-12-15T04:12:47.196Z,-6.92
2022-12-15T04:15:13.758Z,-6.89
2022-12-15T04:17:41.637Z,-6.85
2022-12-15T04:20:11.660Z,-6.82
2022-12-15T04:22:43.712Z,-6.75
2022-12-15T04:25:34.605Z,-6.71
2022-12-15T04:28:19.622Z,-6.69
2022-12-15T04:31:14.678Z,-6.79
2022-12-15T04:34:03.538Z,-6.93
2022-12-15T04:36:49.906Z,-7.04
2022-12-15T04:39:35.274Z,-7.09
2022-12-15T04:42:21.312Z,-7.09
2022-12-15T04:45:08.487Z,-7.09
2022-12-15T04:47:53.739Z,-7.12
2022-12-15T04:50:38.805Z,-7.09
2022-12-15T04:53:33.139Z,-7.06
2022-12-15T04:56:19.060Z,-7.03
2022-12-15T04:59:04.825Z,-6.96
2022-12-15T05:01:50.154Z,-6.88
2022-12-15T05:04:35.235Z,-6.84
2022-12-15T05:07:20.347Z,-6.81
2022-12-15T05:10:08.307Z,-6.77
2022-12-15T05:12:57.685Z,-6.75
2022-12-15T05:15:42.413Z,-6.74
2022-12-15T05:18:27.361Z,-6.77
2022-12-15T05:21:12.173Z,-6.72
2022-12-15T05:23:56.847Z,-6.74
2022-12-15T05:26:41.734Z,-6.74
2022-12-15T05:29:26.657Z,-6.73
2022-12-15T05:31:54.692Z,-6.73
2022-12-15T05:34:23.021Z,-6.74
2022-12-15T05:36:50.542Z,-6.75
2022-12-15T05:39:17.082Z,-6.74
2022-12-15T05:41:43.613Z,-6.73
2022-12-15T05:44:10.319Z,-6.72
2022-12-15T05:46:37.235Z,-6.70
2022-12-15T05:49:07.922Z,-6.70
2022-12-15T05:51:38.415Z,-6.71
2022-12-15T05:54:05.139Z,-6.71
2022-12-15T05:56:31.594Z,-6.71
2022-12-15T05:58:57.998Z,-6.71
2022-12-15T06:01:25.365Z,-6.63
2022-12-15T06:03:52.334Z,-6.59
2022-12-15T06:06:19.739Z,-6.59
2022-12-15T06:08:46.266Z,-6.55
2022-12-15T06:11:18.407Z,-6.55
2022-12-15T06:13:44.896Z,-6.59
2022-12-15T06:16:16.257Z,-6.62
2022-12-15T06:18:50.219Z,-6.66
2022-12-15T06:21:19.423Z,-6.68
2022-12-15T06:23:46.740Z,-6.66
2022-12-15T06:26:17.272Z,-6.68
2022-12-15T06:28:43.967Z,-6.70
2022-12-15T06:31:12.686Z,-6.73
2022-12-15T06:33:39.272Z,-6.75
2022-12-15T06:36:08.999Z,-6.81
2022-12-15T06:38:36.313Z,-6.86
2022-12-15T06:41:04.739Z,-6.90
2022-12-15T06:43:33.260Z,-6.91
2022-12-15T06:46:01.148Z,-6.97
2022-12-15T06:48:27.839Z,-7.00
2022-12-15T06:50:54.600Z,-7.00
2022-12-15T06:53:24.050Z,-7.00
2022-12-15T06:55:50.990Z,-6.99
2022-12-15T06:58:18.254Z,-6.98
2022-12-15T07:00:46.272Z,-7.01
2022-12-15T07:03:16.201Z,-7.04
2022-12-15T07:05:44.963Z,-7.06
2022-12-15T07:08:12.839Z,-7.08
2022-12-15T07:10:44.026Z,-7.10
2022-12-15T07:13:11.932Z,-7.12
2022-12-15T07:15:38.905Z,-7.15
2022-12-15T07:18:05.984Z,-7.13
2022-12-15T07:20:33.360Z,-7.13
2022-12-15T07:23:00.623Z,-7.10
2022-12-15T07:25:26.957Z,-7.08
2022-12-15T07:27:53.355Z,-7.05
2022-12-15T07:30:19.783Z,-7.04
2022-12-15T07:32:46.604Z,-7.03
2022-12-15T07:35:16.966Z,-7.03
2022-12-15T07:37:43.511Z,-7.00
2022-12-15T07:40:10.136Z,-6.94
2022-12-15T07:42:36.519Z,-6.93
2022-12-15T07:45:05.177Z,-6.96
2022-12-15T07:47:32.493Z,-7.02
2022-12-15T07:49:58.963Z,-7.06
2022-12-15T07:52:26.137Z,-7.06
2022-12-15T07:54:52.504Z,-7.08
2022-12-15T07:57:18.926Z,-7.08
2022-12-15T07:59:45.404Z,-7.08
2022-12-15T08:02:13.169Z,-7.09
2022-12-15T08:04:40.476Z,-7.07
2022-12-15T08:07:07.991Z,-6.99
2022-12-15T08:09:34.607Z,-6.96
2022-12-15T08:12:01.044Z,-6.92
2022-12-15T08:14:29.173Z,-6.88
2022-12-15T08:16:55.693Z,-6.79
2022-12-15T08:19:22.158Z,-6.65
2022-12-15T08:21:48.740Z,-6.59
2022-12-15T08:24:15.730Z,-6.56
2022-12-15T08:26:43.856Z,-6.46
2022-12-15T08:31:59.316Z,-6.37
2022-12-15T08:34:25.808Z,-6.33
2022-12-15T08:36:52.198Z,-6.26
2022-12-15T08:39:18.642Z,-6.14
2022-12-15T08:41:45.237Z,-6.13
2022-12-15T08:44:11.867Z,-6.09
2022-12-15T08:46:38.395Z,-6.05
2022-12-15T08:49:04.780Z,-5.96
2022-12-15T08:51:32.796Z,-5.95
2022-12-15T08:54:00.543Z,-5.77
2022-12-15T08:56:28.666Z,-5.67
2022-12-15T08:58:57.726Z,-5.55
2022-12-15T09:01:26.480Z,-5.46
2022-12-15T09:03:54.834Z,-5.34
2022-12-15T09:06:28.319Z,-5.26
2022-12-15T09:08:56.625Z,-5.20
2022-12-15T09:11:24.297Z,-5.09
2022-12-15T09:13:51.115Z,-4.99
2022-12-15T09:16:19.829Z,-4.88
2022-12-15T09:18:48.914Z,-4.79
2022-12-15T09:21:16.756Z,-4.68
2022-12-15T09:23:43.366Z,-4.56
2022-12-15T09:26:12.434Z,-4.46
2022-12-15T09:28:39.198Z,-4.31
2022-12-15T09:31:13.736Z,-4.15
2022-12-15T09:33:42.744Z,-4.03
2022-12-15T09:36:11.115Z,-3.92
2022-12-15T09:38:38.226Z,-3.76
2022-12-15T09:41:13.569Z,-3.61
2022-12-15T09:43:48.264Z,-3.47
2022-12-15T09:46:50.197Z,-3.33
2022-12-15T09:49:48.213Z,-3.14
2022-12-15T09:52:22.667Z,-2.97
2022-12-15T09:54:49.349Z,-2.81
2022-12-15T09:57:40.273Z,-2.65
2022-12-15T10:00:11.232Z,-2.52
2022-12-15T10:02:52.414Z,-2.37
2022-12-15T10:06:07.198Z,-2.23
2022-12-15T10:08:30.416Z,-2.08
2022-12-15T10:11:23.199Z,-1.97
2022-12-15T10:14:11.265Z,-1.91
2022-12-15T10:17:13.129Z,-1.76
2022-12-15T10:19:45.426Z,-1.60
2022-12-15T10:22:22.875Z,-1.62
2022-12-15T10:28:13.099Z,-1.64
2022-12-15T10:31:00.597Z,-1.48
2022-12-15T10:33:37.572Z,-1.30
2022-12-15T10:36:12.369Z,-1.21
2022-12-15T10:38:42.442Z,-1.12
2022-12-15T10:41:11.992Z,-1.02
2022-12-15T10:43:47.033Z,-0.94
2022-12-15T10:46:22.333Z,-0.79
2022-12-15T10:48:51.913Z,-0.56
2022-12-15T10:51:20.068Z,-0.31
2022-12-15T10:53:55.288Z,-0.06
2022-12-15T10:56:33.618Z,0.04
2022-12-15T10:59:21.159Z,0.09
2022-12-15T11:01:47.658Z,0.04
2022-12-15T11:04:32.414Z,0.00
2022-12-15T11:07:01.296Z,0.23
2022-12-15T11:09:38.946Z,0.24
2022-12-15T11:12:42.713Z,0.12
2022-12-15T11:15:32.138Z,0.24
2022-12-15T11:18:10.674Z,0.47
2022-12-15T11:20:45.130Z,0.62
2022-12-15T11:23:48.797Z,0.78
2022-12-15T11:26:46.920Z,0.95
2022-12-15T11:29:38.945Z,0.75
2022-12-15T11:32:07.528Z,0.52
2022-12-15T11:34:41.838Z,0.56
2022-12-15T11:37:17.281Z,0.66
2022-12-15T11:40:19.816Z,0.82
2022-12-15T11:43:18.440Z,0.94
2022-12-15T11:46:09.908Z,1.14
2022-12-15T11:48:50.361Z,1.24
2022-12-15T11:51:35.270Z,0.99
2022-12-15T11:54:11.972Z,1.25
2022-12-15T11:56:47.093Z,1.39
2022-12-15T11:59:35.949Z,1.44
2022-12-15T12:02:24.906Z,1.32
2022-12-15T12:05:16.066Z,1.26
2022-12-15T12:07:49.462Z,1.15
2022-12-15T12:10:31.093Z,1.06
2022-12-15T12:13:12.159Z,1.03
2022-12-15T12:15:47.475Z,1.13
2022-12-15T12:18:23.215Z,1.14
2022-12-15T12:20:54.909Z,1.20
2022-12-15T12:23:36.527Z,1.22
2022-12-15T12:26:25.883Z,1.14
2022-12-15T12:29:06.569Z,1.09
2022-12-15T12:31:51.930Z,1.36
2022-12-15T12:34:37.420Z,1.30
2022-12-15T12:37:19.798Z,1.14
2022-12-15T12:39:48.121Z,1.10
2022-12-15T12:42:22.970Z,1.14
2022-12-15T12:44:49.386Z,1.11
2022-12-15T12:47:41.264Z,1.02
2022-12-15T12:50:17.257Z,1.01
2022-12-15T12:53:03.596Z,0.89
2022-12-15T12:55:41.687Z,0.88
2022-12-15T12:58:34.804Z,0.95
2022-12-15T13:01:10.390Z,1.12
2022-12-15T13:03:42.022Z,1.15
2022-12-15T13:06:40.613Z,1.11
2022-12-15T13:09:22.024Z,1.04
2022-12-15T13:11:48.917Z,0.94
2022-12-15T13:17:27.700Z,0.86
2022-12-15T13:20:00.464Z,0.88
2022-12-15T13:22:26.778Z,0.83
2022-12-15T13:24:56.192Z,0.79
2022-12-15T13:27:23.792Z,0.83
2022-12-15T13:30:14.139Z,0.82
2022-12-15T13:32:43.510Z,0.73
2022-12-15T13:35:12.654Z,0.70
2022-12-15T13:37:51.251Z,0.74
2022-12-15T13:40:33.639Z,0.81
2022-12-15T13:43:06.028Z,0.83
2022-12-15T13:45:48.595Z,0.83
2022-12-15T13:48:29.201Z,0.87
2022-12-15T13:50:58.011Z,0.91
2022-12-15T13:53:28.934Z,0.95
2022-12-15T13:56:14.783Z,0.96
2022-12-15T13:58:44.565Z,0.98
2022-12-15T14:04:16.197Z,1.04
2022-12-15T14:06:50.870Z,1.03
2022-12-15T14:09:22.443Z,0.96
2022-12-15T14:11:54.304Z,0.89
2022-12-15T14:14:28.269Z,0.86
2022-12-15T14:16:58.832Z,0.82
2022-12-15T14:19:25.968Z,0.81
2022-12-15T14:21:55.548Z,0.80
2022-12-15T14:24:40.173Z,0.76
2022-12-15T14:27:30.471Z,0.70
2022-12-15T14:30:23.317Z,0.63
2022-12-15T14:33:08.249Z,0.61
2022-12-15T14:35:44.633Z,0.56
2022-12-15T14:38:20.922Z,0.51
2022-12-15T14:40:51.104Z,0.47
2022-12-15T14:43:24.929Z,0.40
2022-12-15T14:45:56.288Z,0.37
2022-12-15T14:48:41.830Z,0.33
2022-12-15T14:51:19.720Z,0.31
2022-12-15T14:53:53.048Z,0.26
2022-12-15T14:56:25.739Z,0.25
2022-12-15T14:59:04.211Z,0.22
2022-12-15T15:03:05.769Z,1.00
2022-12-15T15:03:06.148Z,0.17
2022-12-15T15:03:13.041Z,0.88
2022-12-15T15:04:36.992Z,0.10
2022-12-15T15:07:06.688Z,0.06
2022-12-15T15:09:40.578Z,-0.02
2022-12-15T15:12:14.120Z,-0.07
2022-12-15T15:14:44.550Z,-0.09
2022-12-15T15:17:14.465Z,-0.15
2022-12-15T15:19:49.002Z,-0.19
2022-12-15T15:22:30.736Z,-0.22
2022-12-15T15:24:57.122Z,-0.28
2022-12-15T15:27:38.153Z,-0.33
2022-12-15T15:30:20.569Z,-0.38
2022-12-15T15:33:07.922Z,-0.41
2022-12-15T15:35:34.462Z,-0.48
2022-12-15T15:38:11.274Z,-0.51
2022-12-15T15:40:37.763Z,-0.54
2022-12-15T15:43:14.049Z,-0.59
2022-12-15T15:45:41.902Z,-0.63
2022-12-15T15:48:17.327Z,-0.72
2022-12-15T15:50:44.589Z,-0.78
2022-12-15T15:53:17.597Z,-0.83
2022-12-15T15:55:44.781Z,-0.85
2022-12-15T15:58:12.891Z,-0.90
2022-12-15T16:00:40.234Z,-0.93
2022-12-15T16:03:07.180Z,-0.97
2022-12-15T16:05:33.938Z,-1.00
2022-12-15T16:08:01.491Z,-1.04
2022-12-15T16:10:28.311Z,-1.10
2022-12-15T16:12:56.939Z,-1.13
2022-12-15T16:15:26.236Z,-1.17
2022-12-15T16:17:53.564Z,-1.21
2022-12-15T16:20:22.506Z,-1.26
2022-12-15T16:22:55.350Z,-1.27
2022-12-15T16:25:31.736Z,-1.29
2022-12-15T16:28:03.356Z,-1.34
2022-12-15T16:30:30.064Z,-1.37
2022-12-15T16:32:56.481Z,-1.44
2022-12-15T16:35:26.387Z,-1.49
2022-12-15T16:37:52.996Z,-1.49
2022-12-15T16:40:23.499Z,-1.52
2022-12-15T16:42:54.351Z,-1.58
2022-12-15T16:45:23.292Z,-1.60
2022-12-15T16:47:49.815Z,-1.65
2022-12-15T16:50:38.185Z,-1.66
2022-12-15T16:53:05.544Z,-1.70
2022-12-15T16:55:39.811Z,-1.72
2022-12-15T16:58:06.955Z,-1.73
2022-12-15T17:00:35.204Z,-1.72
2022-12-15T17:03:02.467Z,-1.72
2022-12-15T17:05:31.906Z,-1.75
2022-12-15T17:08:00.758Z,-1.78
2022-12-15T17:10:30.138Z,-1.79
2022-12-15T17:13:03.081Z,-1.83
2022-12-15T17:15:29.457Z,-1.86
2022-12-15T17:17:56.296Z,-1.87
2022-12-15T17:20:30.097Z,-1.89
2022-12-15T17:23:07.627Z,-1.90
2022-12-15T17:28:30.994Z,-1.91
2022-12-15T17:30:57.633Z,-1.93
2022-12-15T17:33:25.699Z,-1.93
2022-12-15T17:35:55.035Z,-1.92
2022-12-15T17:38:22.672Z,-1.91
2022-12-15T17:40:51.094Z,-1.92
2022-12-15T17:43:23.799Z,-1.94
2022-12-15T17:45:50.854Z,-1.98
2022-12-15T17:48:17.874Z,-2.03
2022-12-15T17:50:49.891Z,-2.02
2022-12-15T17:53:18.580Z,-2.00
2022-12-15T17:55:45.427Z,-2.01
2022-12-15T17:58:20.947Z,-2.00
2022-12-15T18:00:51.654Z,-1.95
2022-12-15T18:03:19.558Z,-1.90
2022-12-15T18:05:48.049Z,-1.89
2022-12-15T18:08:22.585Z,-1.85
2022-12-15T18:10:51.694Z,-1.82
2022-12-15T18:13:26.844Z,-1.82
2022-12-15T18:15:55.518Z,-1.83
2022-12-15T18:18:24.833Z,-1.84
2022-12-15T18:20:56.742Z,-1.81
2022-12-15T18:23:25.076Z,-1.76
2022-12-15T18:25:52.429Z,-1.74
2022-12-15T18:28:21.972Z,-1.71
2022-12-15T18:30:50.144Z,-1.67
2022-12-15T18:33:16.844Z,-1.63
2022-12-15T18:35:45.815Z,-1.62
2022-12-15T18:38:23.868Z,-1.64
2022-12-15T18:40:57.095Z,-1.63
2022-12-15T18:43:34.698Z,-1.64
2022-12-15T18:46:01.537Z,-1.63
2022-12-15T18:48:35.034Z,-1.66
2022-12-15T18:51:03.212Z,-1.68
2022-12-15T18:53:34.042Z,-1.68
2022-12-15T18:56:03.266Z,-1.71
2022-12-15T18:58:32.388Z,-1.74
2022-12-15T19:01:00.971Z,-1.74
2022-12-15T19:03:28.346Z,-1.77
2022-12-15T19:06:25.280Z,-1.78
2022-12-15T19:08:52.478Z,-1.83
2022-12-15T19:11:32.664Z,-1.84
2022-12-15T19:14:01.026Z,-1.85
2022-12-15T19:16:48.116Z,-1.87
2022-12-15T19:19:34.876Z,-1.87
2022-12-15T19:22:20.260Z,-1.86
2022-12-15T19:24:55.558Z,-1.83
2022-12-15T19:27:26.583Z,-1.80
2022-12-15T19:29:54.533Z,-1.76
2022-12-15T19:32:21.325Z,-1.74
2022-12-15T19:34:47.752Z,-1.73
2022-12-15T19:37:22.874Z,-1.71
2022-12-15T19:39:49.610Z,-1.70
2022-12-15T19:42:23.706Z,-1.72
2022-12-15T19:44:50.107Z,-1.75
2022-12-15T19:47:16.514Z,-1.76
2022-12-15T19:49:43.585Z,-1.78
2022-12-15T19:52:14.615Z,-1.78
2022-12-15T19:54:42.389Z,-1.81
2022-12-15T19:57:13.521Z,-1.84
2022-12-15T19:59:39.994Z,-1.84
2022-12-15T20:02:07.094Z,-1.85
2022-12-15T20:04:34.055Z,-1.91
2022-12-15T20:07:03.831Z,-1.95
2022-12-15T20:09:30.287Z,-1.98
2022-12-15T20:11:57.217Z,-1.96
2022-12-15T20:14:24.846Z,-1.95
2022-12-15T20:16:51.380Z,-1.94
2022-12-15T20:19:17.883Z,-1.91
2022-12-15T20:21:44.483Z,-1.90
2022-12-15T20:24:17.464Z,-1.88
2022-12-15T20:26:45.242Z,-1.87
2022-12-15T20:29:24.661Z,-1.85
2022-12-15T20:31:52.404Z,-1.84
2022-12-15T20:34:18.945Z,-1.83
2022-12-15T20:36:47.324Z,-1.85
2022-12-15T20:39:33.968Z,-1.83
2022-12-15T20:42:00.414Z,-1.83
2022-12-15T20:44:26.976Z,-1.81
2022-12-15T20:46:53.538Z,-1.84
2022-12-15T20:49:21.625Z,-1.82
2022-12-15T20:51:48.653Z,-1.84
2022-12-15T20:54:17.482Z,-1.82
2022-12-15T20:56:45.094Z,-1.81
2022-12-15T20:59:11.514Z,-1.80
2022-12-15T21:01:41.933Z,-1.80
2022-12-15T21:04:29.279Z,-1.81
2022-12-15T21:06:56.744Z,-1.79
2022-12-15T21:09:24.036Z,-1.77
2022-12-15T21:11:51.870Z,-1.76
2022-12-15T21:14:22.293Z,-1.74
2022-12-15T21:16:49.209Z,-1.74
2022-12-15T21:19:20.963Z,-1.72
2022-12-15T21:21:51.771Z,-1.72
2022-12-15T21:24:24.550Z,-1.72
2022-12-15T21:26:51.989Z,-1.69
2022-12-15T21:29:21.416Z,-1.67
2022-12-15T21:31:48.387Z,-1.64
2022-12-15T21:34:15.257Z,-1.67
2022-12-15T21:36:44.212Z,-1.68
2022-12-15T21:39:18.515Z,-1.72
2022-12-15T21:41:44.994Z,-1.74
2022-12-15T21:44:13.750Z,-1.75
2022-12-15T21:46:40.831Z,-1.75
2022-12-15T21:49:20.401Z,-1.73
2022-12-15T21:51:56.387Z,-1.72
2022-12-15T21:54:31.327Z,-1.68
2022-12-15T21:56:58.978Z,-1.67
2022-12-15T21:59:28.935Z,-1.63
2022-12-15T22:01:55.974Z,-1.62
2022-12-15T22:04:31.349Z,-1.59
2022-12-15T22:06:57.748Z,-1.56
2022-12-15T22:09:24.622Z,-1.53
2022-12-15T22:11:53.745Z,-1.52
2022-12-15T22:14:33.589Z,-1.53
2022-12-15T22:17:01.882Z,-1.54
2022-12-15T22:19:28.683Z,-1.52
2022-12-15T22:21:55.259Z,-1.52
2022-12-15T22:24:22.036Z,-1.49
2022-12-15T22:26:48.667Z,-1.49
2022-12-15T22:29:18.783Z,-1.47
2022-12-15T22:31:45.200Z,-1.43
2022-12-15T22:34:20.730Z,-1.44
2022-12-15T22:36:48.134Z,-1.43
2022-12-15T22:39:15.095Z,-1.41
2022-12-15T22:41:44.765Z,-1.41
2022-12-15T22:44:19.307Z,-1.38
2022-12-15T22:46:46.904Z,-1.39
2022-12-15T22:49:17.483Z,-1.40
2022-12-15T22:51:44.764Z,-1.38
2022-12-15T22:54:17.928Z,-1.39
2022-12-15T22:56:45.324Z,-1.37
2022-12-15T22:59:19.500Z,-1.37
2022-12-15T23:01:45.969Z,-1.42
2022-12-15T23:04:12.800Z,-1.45
2022-12-15T23:06:40.418Z,-1.53
2022-12-15T23:09:06.969Z,-1.58
2022-12-15T23:11:39.704Z,-1.64
2022-12-15T23:14:14.458Z,-1.68
2022-12-15T23:16:42.087Z,-1.75
2022-12-15T23:19:09.526Z,-1.83
2022-12-15T23:21:36.560Z,-1.88
2022-12-15T23:24:03.086Z,-1.94
2022-12-15T23:26:29.465Z,-1.99
2022-12-15T23:28:56.020Z,-2.03
2022-12-15T23:31:22.690Z,-2.04
2022-12-15T23:33:50.025Z,-2.10
2022-12-15T23:36:18.694Z,-2.13
2022-12-15T23:38:45.178Z,-2.15
2022-12-15T23:41:16.030Z,-2.18
2022-12-15T23:43:42.475Z,-2.23
2022-12-15T23:46:09.572Z,-2.27
2022-12-15T23:48:38.357Z,-2.32
2022-12-15T23:51:05.920Z,-2.34
2022-12-15T23:53:33.200Z,-2.38
2022-12-15T23:56:14.685Z,-2.44
2022-12-15T23:58:42.597Z,-2.54
